sensor_id;sensor_type;location;lat;lon;timestamp;P1;durP1;ratioP1;P2;durP2;ratioP2
29958;SDS011;16815;51.100;6.516;2023-12-20T00:00:28;3.40;;;3.10;;
29958;SDS011;16815;51.100;6.516;2023-12-20T00:02:54;3.73;;;3.37;;
29958;SDS011;16815;51.100;6.516;2023-12-20T00:05:20;6.33;;;3.60;;
29958;SDS011;16815;51.100;6.516;2023-12-20T00:07:46;5.17;;;3.90;;
29958;SDS011;16815;51.100;6.516;2023-12-20T00:10:12;5.00;;;4.33;;
29958;SDS011;16815;51.100;6.516;2023-12-20T00:12:38;5.63;;;4.60;;
29958;SDS011;16815;51.100;6.516;2023-12-20T00:15:04;5.27;;;4.77;;
29958;SDS011;16815;51.100;6.516;2023-12-20T00:17:30;5.63;;;4.97;;
29958;SDS011;16815;51.100;6.516;2023-12-20T00:19:56;7.70;;;5.80;;
29958;SDS011;16815;51.100;6.516;2023-12-20T00:22:22;6.67;;;5.53;;
29958;SDS011;16815;51.100;6.516;2023-12-20T00:24:48;8.07;;;5.90;;
29958;SDS011;16815;51.100;6.516;2023-12-20T00:27:14;8.17;;;7.30;;
29958;SDS011;16815;51.100;6.516;2023-12-20T00:29:40;8.07;;;7.27;;
29958;SDS011;16815;51.100;6.516;2023-12-20T00:32:08;8.70;;;7.60;;
29958;SDS011;16815;51.100;6.516;2023-12-20T00:34:34;8.90;;;7.70;;
29958;SDS011;16815;51.100;6.516;2023-12-20T00:37:00;9.50;;;7.90;;
29958;SDS011;16815;51.100;6.516;2023-12-20T00:39:25;11.07;;;8.73;;
29958;SDS011;16815;51.100;6.516;2023-12-20T00:41:51;9.73;;;8.43;;
29958;SDS011;16815;51.100;6.516;2023-12-20T00:44:17;10.43;;;8.30;;
29958;SDS011;16815;51.100;6.516;2023-12-20T00:46:43;9.30;;;7.57;;
29958;SDS011;16815;51.100;6.516;2023-12-20T00:49:09;8.70;;;7.80;;
29958;SDS011;16815;51.100;6.516;2023-12-20T00:51:35;13.17;;;10.10;;
29958;SDS011;16815;51.100;6.516;2023-12-20T00:54:01;13.03;;;11.37;;
29958;SDS011;16815;51.100;6.516;2023-12-20T00:56:27;13.73;;;11.17;;
29958;SDS011;16815;51.100;6.516;2023-12-20T00:58:53;13.03;;;11.70;;
29958;SDS011;16815;51.100;6.516;2023-12-20T01:01:19;14.80;;;12.37;;
29958;SDS011;16815;51.100;6.516;2023-12-20T01:03:45;15.60;;;12.17;;
29958;SDS011;16815;51.100;6.516;2023-12-20T01:06:11;15.33;;;12.17;;
29958;SDS011;16815;51.100;6.516;2023-12-20T01:08:37;13.87;;;11.70;;
29958;SDS011;16815;51.100;6.516;2023-12-20T01:11:04;16.60;;;11.57;;
29958;SDS011;16815;51.100;6.516;2023-12-20T01:13:30;14.87;;;10.67;;
29958;SDS011;16815;51.100;6.516;2023-12-20T01:15:56;16.33;;;9.93;;
29958;SDS011;16815;51.100;6.516;2023-12-20T01:18:22;10.63;;;8.17;;
29958;SDS011;16815;51.100;6.516;2023-12-20T01:20:48;12.37;;;8.20;;
29958;SDS011;16815;51.100;6.516;2023-12-20T01:23:14;15.67;;;7.83;;
29958;SDS011;16815;51.100;6.516;2023-12-20T01:25:40;10.90;;;7.50;;
29958;SDS011;16815;51.100;6.516;2023-12-20T01:28:06;10.33;;;7.07;;
29958;SDS011;16815;51.100;6.516;2023-12-20T01:30:32;15.97;;;6.80;;
29958;SDS011;16815;51.100;6.516;2023-12-20T01:32:59;9.57;;;5.97;;
29958;SDS011;16815;51.100;6.516;2023-12-20T01:35:25;11.90;;;6.87;;
29958;SDS011;16815;51.100;6.516;2023-12-20T01:37:51;11.37;;;6.57;;
29958;SDS011;16815;51.100;6.516;2023-12-20T01:40:21;15.17;;;6.40;;
29958;SDS011;16815;51.100;6.516;2023-12-20T01:42:47;9.70;;;5.17;;
29958;SDS011;16815;51.100;6.516;2023-12-20T01:45:13;15.97;;;5.27;;
29958;SDS011;16815;51.100;6.516;2023-12-20T01:47:39;8.97;;;5.37;;
29958;SDS011;16815;51.100;6.516;2023-12-20T01:50:05;14.10;;;5.10;;
29958;SDS011;16815;51.100;6.516;2023-12-20T01:52:33;11.20;;;4.80;;
29958;SDS011;16815;51.100;6.516;2023-12-20T01:54:59;11.70;;;4.57;;
29958;SDS011;16815;51.100;6.516;2023-12-20T01:57:28;12.00;;;5.80;;
29958;SDS011;16815;51.100;6.516;2023-12-20T01:59:54;10.93;;;5.10;;
29958;SDS011;16815;51.100;6.516;2023-12-20T02:02:20;12.83;;;4.90;;
29958;SDS011;16815;51.100;6.516;2023-12-20T02:04:46;11.00;;;4.53;;
29958;SDS011;16815;51.100;6.516;2023-12-20T02:07:12;11.40;;;4.50;;
29958;SDS011;16815;51.100;6.516;2023-12-20T02:09:38;12.93;;;4.47;;
29958;SDS011;16815;51.100;6.516;2023-12-20T02:12:05;12.33;;;4.17;;
29958;SDS011;16815;51.100;6.516;2023-12-20T02:14:31;12.83;;;4.00;;
29958;SDS011;16815;51.100;6.516;2023-12-20T02:16:57;9.40;;;3.67;;
29958;SDS011;16815;51.100;6.516;2023-12-20T02:19:23;13.27;;;4.20;;
29958;SDS011;16815;51.100;6.516;2023-12-20T02:21:49;12.87;;;3.60;;
29958;SDS011;16815;51.100;6.516;2023-12-20T02:24:15;10.37;;;3.50;;
29958;SDS011;16815;51.100;6.516;2023-12-20T02:26:42;13.57;;;3.47;;
29958;SDS011;16815;51.100;6.516;2023-12-20T02:29:09;10.23;;;3.20;;
29958;SDS011;16815;51.100;6.516;2023-12-20T02:31:35;6.70;;;3.30;;
29958;SDS011;16815;51.100;6.516;2023-12-20T02:34:01;8.80;;;3.00;;
29958;SDS011;16815;51.100;6.516;2023-12-20T02:36:26;13.27;;;3.73;;
29958;SDS011;16815;51.100;6.516;2023-12-20T02:38:52;7.23;;;2.97;;
29958;SDS011;16815;51.100;6.516;2023-12-20T02:41:18;8.73;;;3.00;;
29958;SDS011;16815;51.100;6.516;2023-12-20T02:43:45;14.87;;;3.57;;
29958;SDS011;16815;51.100;6.516;2023-12-20T02:46:11;11.13;;;3.33;;
29958;SDS011;16815;51.100;6.516;2023-12-20T02:48:37;12.33;;;3.27;;
29958;SDS011;16815;51.100;6.516;2023-12-20T02:51:03;11.43;;;3.30;;
29958;SDS011;16815;51.100;6.516;2023-12-20T02:53:29;11.13;;;3.23;;
29958;SDS011;16815;51.100;6.516;2023-12-20T02:55:55;9.63;;;3.33;;
29958;SDS011;16815;51.100;6.516;2023-12-20T02:58:21;6.00;;;2.57;;
29958;SDS011;16815;51.100;6.516;2023-12-20T03:00:47;9.50;;;3.30;;
29958;SDS011;16815;51.100;6.516;2023-12-20T03:03:13;11.70;;;3.73;;
29958;SDS011;16815;51.100;6.516;2023-12-20T03:05:39;8.63;;;3.40;;
29958;SDS011;16815;51.100;6.516;2023-12-20T03:08:05;9.17;;;3.07;;
29958;SDS011;16815;51.100;6.516;2023-12-20T03:10:31;14.63;;;4.40;;
29958;SDS011;16815;51.100;6.516;2023-12-20T03:12:57;9.47;;;3.13;;
29958;SDS011;16815;51.100;6.516;2023-12-20T03:15:22;10.13;;;3.43;;
29958;SDS011;16815;51.100;6.516;2023-12-20T03:17:48;14.13;;;3.93;;
29958;SDS011;16815;51.100;6.516;2023-12-20T03:20:14;13.17;;;3.90;;
29958;SDS011;16815;51.100;6.516;2023-12-20T03:22:40;11.50;;;3.63;;
29958;SDS011;16815;51.100;6.516;2023-12-20T03:25:06;10.90;;;4.00;;
29958;SDS011;16815;51.100;6.516;2023-12-20T03:27:32;16.70;;;3.80;;
29958;SDS011;16815;51.100;6.516;2023-12-20T03:30:00;15.50;;;4.40;;
29958;SDS011;16815;51.100;6.516;2023-12-20T03:32:26;13.57;;;4.40;;
29958;SDS011;16815;51.100;6.516;2023-12-20T03:34:51;15.03;;;4.10;;
29958;SDS011;16815;51.100;6.516;2023-12-20T03:37:17;11.30;;;3.50;;
29958;SDS011;16815;51.100;6.516;2023-12-20T03:39:45;8.87;;;3.60;;
29958;SDS011;16815;51.100;6.516;2023-12-20T03:42:11;8.93;;;3.97;;
29958;SDS011;16815;51.100;6.516;2023-12-20T03:44:38;8.47;;;3.70;;
29958;SDS011;16815;51.100;6.516;2023-12-20T03:47:05;12.10;;;3.90;;
29958;SDS011;16815;51.100;6.516;2023-12-20T03:49:31;10.33;;;3.63;;
29958;SDS011;16815;51.100;6.516;2023-12-20T03:51:57;12.07;;;3.90;;
29958;SDS011;16815;51.100;6.516;2023-12-20T03:54:22;11.77;;;3.83;;
29958;SDS011;16815;51.100;6.516;2023-12-20T03:56:48;22.17;;;4.87;;
29958;SDS011;16815;51.100;6.516;2023-12-20T03:59:15;13.63;;;3.83;;
29958;SDS011;16815;51.100;6.516;2023-12-20T04:01:44;11.70;;;3.70;;
29958;SDS011;16815;51.100;6.516;2023-12-20T04:04:10;9.63;;;3.90;;
29958;SDS011;16815;51.100;6.516;2023-12-20T04:06:37;12.60;;;5.33;;
29958;SDS011;16815;51.100;6.516;2023-12-20T04:09:03;16.47;;;4.63;;
29958;SDS011;16815;51.100;6.516;2023-12-20T04:11:29;13.87;;;4.27;;
29958;SDS011;16815;51.100;6.516;2023-12-20T04:13:55;14.37;;;4.57;;
29958;SDS011;16815;51.100;6.516;2023-12-20T04:16:21;12.40;;;4.60;;
29958;SDS011;16815;51.100;6.516;2023-12-20T04:18:47;14.77;;;4.97;;
29958;SDS011;16815;51.100;6.516;2023-12-20T04:21:13;18.13;;;5.67;;
29958;SDS011;16815;51.100;6.516;2023-12-20T04:23:39;14.03;;;4.97;;
29958;SDS011;16815;51.100;6.516;2023-12-20T04:26:05;13.67;;;4.27;;
29958;SDS011;16815;51.100;6.516;2023-12-20T04:28:31;12.33;;;5.50;;
29958;SDS011;16815;51.100;6.516;2023-12-20T04:30:57;16.37;;;5.60;;
29958;SDS011;16815;51.100;6.516;2023-12-20T04:33:23;12.17;;;4.57;;
29958;SDS011;16815;51.100;6.516;2023-12-20T04:35:49;15.67;;;5.17;;
29958;SDS011;16815;51.100;6.516;2023-12-20T04:38:15;10.83;;;5.03;;
29958;SDS011;16815;51.100;6.516;2023-12-20T04:40:41;16.30;;;4.93;;
29958;SDS011;16815;51.100;6.516;2023-12-20T04:43:07;12.30;;;4.57;;
29958;SDS011;16815;51.100;6.516;2023-12-20T04:45:36;11.33;;;5.13;;
29958;SDS011;16815;51.100;6.516;2023-12-20T04:48:02;10.90;;;4.67;;
29958;SDS011;16815;51.100;6.516;2023-12-20T04:50:29;11.57;;;4.80;;
29958;SDS011;16815;51.100;6.516;2023-12-20T04:52:55;13.07;;;4.63;;
29958;SDS011;16815;51.100;6.516;2023-12-20T04:55:21;13.63;;;5.63;;
29958;SDS011;16815;51.100;6.516;2023-12-20T04:57:47;15.37;;;6.00;;
29958;SDS011;16815;51.100;6.516;2023-12-20T05:00:13;13.43;;;4.87;;
29958;SDS011;16815;51.100;6.516;2023-12-20T05:02:40;15.90;;;5.27;;
29958;SDS011;16815;51.100;6.516;2023-12-20T05:05:06;13.80;;;4.70;;
29958;SDS011;16815;51.100;6.516;2023-12-20T05:07:32;19.10;;;6.27;;
29958;SDS011;16815;51.100;6.516;2023-12-20T05:09:58;12.30;;;5.57;;
29958;SDS011;16815;51.100;6.516;2023-12-20T05:12:24;23.57;;;6.37;;
29958;SDS011;16815;51.100;6.516;2023-12-20T05:14:51;10.67;;;5.10;;
29958;SDS011;16815;51.100;6.516;2023-12-20T05:17:17;13.60;;;4.47;;
29958;SDS011;16815;51.100;6.516;2023-12-20T05:19:45;13.33;;;5.37;;
29958;SDS011;16815;51.100;6.516;2023-12-20T05:22:14;16.10;;;5.63;;
29958;SDS011;16815;51.100;6.516;2023-12-20T05:24:39;11.63;;;4.87;;
29958;SDS011;16815;51.100;6.516;2023-12-20T05:27:05;12.73;;;4.83;;
29958;SDS011;16815;51.100;6.516;2023-12-20T05:29:31;14.40;;;5.63;;
29958;SDS011;16815;51.100;6.516;2023-12-20T05:31:58;12.87;;;6.10;;
29958;SDS011;16815;51.100;6.516;2023-12-20T05:34:24;10.47;;;4.50;;
29958;SDS011;16815;51.100;6.516;2023-12-20T05:36:50;16.70;;;5.90;;
29958;SDS011;16815;51.100;6.516;2023-12-20T05:39:16;12.80;;;4.97;;
29958;SDS011;16815;51.100;6.516;2023-12-20T05:41:42;12.57;;;5.30;;
29958;SDS011;16815;51.100;6.516;2023-12-20T05:44:08;20.80;;;5.43;;
29958;SDS011;16815;51.100;6.516;2023-12-20T05:46:35;14.20;;;4.63;;
29958;SDS011;16815;51.100;6.516;2023-12-20T05:49:01;13.73;;;4.87;;
29958;SDS011;16815;51.100;6.516;2023-12-20T05:51:27;14.83;;;5.53;;
29958;SDS011;16815;51.100;6.516;2023-12-20T05:53:53;16.10;;;4.87;;
29958;SDS011;16815;51.100;6.516;2023-12-20T05:56:19;17.20;;;4.77;;
29958;SDS011;16815;51.100;6.516;2023-12-20T05:58:45;13.57;;;5.03;;
29958;SDS011;16815;51.100;6.516;2023-12-20T06:01:11;13.23;;;4.60;;
29958;SDS011;16815;51.100;6.516;2023-12-20T06:03:40;16.97;;;4.97;;
29958;SDS011;16815;51.100;6.516;2023-12-20T06:06:06;13.20;;;4.97;;
29958;SDS011;16815;51.100;6.516;2023-12-20T06:08:32;16.00;;;4.97;;
29958;SDS011;16815;51.100;6.516;2023-12-20T06:11:00;17.40;;;4.97;;
29958;SDS011;16815;51.100;6.516;2023-12-20T06:13:26;13.60;;;4.50;;
29958;SDS011;16815;51.100;6.516;2023-12-20T06:15:52;13.67;;;4.57;;
29958;SDS011;16815;51.100;6.516;2023-12-20T06:18:18;12.60;;;4.43;;
29958;SDS011;16815;51.100;6.516;2023-12-20T06:20:43;15.63;;;5.13;;
29958;SDS011;16815;51.100;6.516;2023-12-20T06:23:09;16.67;;;5.03;;
29958;SDS011;16815;51.100;6.516;2023-12-20T06:25:35;16.13;;;4.77;;
29958;SDS011;16815;51.100;6.516;2023-12-20T06:28:01;15.50;;;4.57;;
29958;SDS011;16815;51.100;6.516;2023-12-20T06:30:27;18.20;;;4.67;;
29958;SDS011;16815;51.100;6.516;2023-12-20T06:32:54;14.47;;;5.10;;
29958;SDS011;16815;51.100;6.516;2023-12-20T06:35:22;15.83;;;5.50;;
29958;SDS011;16815;51.100;6.516;2023-12-20T06:37:49;9.93;;;5.10;;
29958;SDS011;16815;51.100;6.516;2023-12-20T06:40:14;14.20;;;5.63;;
29958;SDS011;16815;51.100;6.516;2023-12-20T06:42:41;17.43;;;5.23;;
29958;SDS011;16815;51.100;6.516;2023-12-20T06:45:07;14.33;;;4.50;;
29958;SDS011;16815;51.100;6.516;2023-12-20T06:47:33;13.10;;;4.80;;
29958;SDS011;16815;51.100;6.516;2023-12-20T06:49:59;14.90;;;4.70;;
29958;SDS011;16815;51.100;6.516;2023-12-20T06:52:25;16.87;;;5.20;;
29958;SDS011;16815;51.100;6.516;2023-12-20T06:54:51;18.50;;;5.40;;
29958;SDS011;16815;51.100;6.516;2023-12-20T06:57:17;13.93;;;5.03;;
29958;SDS011;16815;51.100;6.516;2023-12-20T06:59:44;12.20;;;4.63;;
29958;SDS011;16815;51.100;6.516;2023-12-20T07:02:10;14.63;;;5.73;;
29958;SDS011;16815;51.100;6.516;2023-12-20T07:04:39;16.53;;;5.53;;
29958;SDS011;16815;51.100;6.516;2023-12-20T07:07:06;13.83;;;5.10;;
29958;SDS011;16815;51.100;6.516;2023-12-20T07:09:32;9.90;;;4.93;;
29958;SDS011;16815;51.100;6.516;2023-12-20T07:11:58;12.87;;;5.43;;
29958;SDS011;16815;51.100;6.516;2023-12-20T07:14:24;13.27;;;5.13;;
29958;SDS011;16815;51.100;6.516;2023-12-20T07:16:50;14.50;;;4.77;;
29958;SDS011;16815;51.100;6.516;2023-12-20T07:19:16;14.10;;;4.97;;
29958;SDS011;16815;51.100;6.516;2023-12-20T07:21:42;13.40;;;4.93;;
29958;SDS011;16815;51.100;6.516;2023-12-20T07:24:08;16.10;;;5.70;;
29958;SDS011;16815;51.100;6.516;2023-12-20T07:26:34;11.23;;;5.50;;
29958;SDS011;16815;51.100;6.516;2023-12-20T07:29:02;21.03;;;5.10;;
29958;SDS011;16815;51.100;6.516;2023-12-20T07:31:29;15.57;;;5.57;;
29958;SDS011;16815;51.100;6.516;2023-12-20T07:33:55;17.07;;;5.60;;
29958;SDS011;16815;51.100;6.516;2023-12-20T07:36:21;15.83;;;5.47;;
29958;SDS011;16815;51.100;6.516;2023-12-20T07:38:47;17.83;;;5.87;;
29958;SDS011;16815;51.100;6.516;2023-12-20T07:41:13;15.80;;;5.43;;
29958;SDS011;16815;51.100;6.516;2023-12-20T07:43:41;9.33;;;4.90;;
29958;SDS011;16815;51.100;6.516;2023-12-20T07:46:07;16.80;;;5.27;;
29958;SDS011;16815;51.100;6.516;2023-12-20T07:48:34;14.43;;;5.33;;
29958;SDS011;16815;51.100;6.516;2023-12-20T07:51:01;15.53;;;5.17;;
29958;SDS011;16815;51.100;6.516;2023-12-20T07:53:27;14.37;;;4.57;;
29958;SDS011;16815;51.100;6.516;2023-12-20T07:55:53;11.07;;;4.70;;
29958;SDS011;16815;51.100;6.516;2023-12-20T07:58:19;18.03;;;5.50;;
29958;SDS011;16815;51.100;6.516;2023-12-20T08:00:45;15.33;;;4.90;;
29958;SDS011;16815;51.100;6.516;2023-12-20T08:03:11;18.77;;;5.40;;
29958;SDS011;16815;51.100;6.516;2023-12-20T08:05:38;14.30;;;5.13;;
29958;SDS011;16815;51.100;6.516;2023-12-20T08:08:07;15.37;;;5.20;;
29958;SDS011;16815;51.100;6.516;2023-12-20T08:10:33;17.80;;;5.50;;
29958;SDS011;16815;51.100;6.516;2023-12-20T08:12:58;14.70;;;5.13;;
29958;SDS011;16815;51.100;6.516;2023-12-20T08:15:24;13.80;;;5.27;;
29958;SDS011;16815;51.100;6.516;2023-12-20T08:17:50;15.57;;;4.97;;
29958;SDS011;16815;51.100;6.516;2023-12-20T08:20:17;12.67;;;4.43;;
29958;SDS011;16815;51.100;6.516;2023-12-20T08:22:43;14.23;;;4.77;;
29958;SDS011;16815;51.100;6.516;2023-12-20T08:25:08;16.27;;;5.53;;
29958;SDS011;16815;51.100;6.516;2023-12-20T08:27:41;11.60;;;4.50;;
29958;SDS011;16815;51.100;6.516;2023-12-20T08:30:09;12.50;;;5.20;;
29958;SDS011;16815;51.100;6.516;2023-12-20T08:32:36;15.20;;;5.03;;
29958;SDS011;16815;51.100;6.516;2023-12-20T08:35:02;11.60;;;4.90;;
29958;SDS011;16815;51.100;6.516;2023-12-20T08:37:28;11.80;;;4.00;;
29958;SDS011;16815;51.100;6.516;2023-12-20T08:39:55;14.47;;;4.83;;
29958;SDS011;16815;51.100;6.516;2023-12-20T08:42:21;12.47;;;4.23;;
29958;SDS011;16815;51.100;6.516;2023-12-20T08:44:49;15.20;;;5.27;;
29958;SDS011;16815;51.100;6.516;2023-12-20T08:47:15;16.90;;;4.80;;
29958;SDS011;16815;51.100;6.516;2023-12-20T08:49:42;13.97;;;4.63;;
29958;SDS011;16815;51.100;6.516;2023-12-20T08:52:08;15.67;;;4.67;;
29958;SDS011;16815;51.100;6.516;2023-12-20T08:54:34;15.27;;;4.97;;
29958;SDS011;16815;51.100;6.516;2023-12-20T08:57:00;16.07;;;5.33;;
29958;SDS011;16815;51.100;6.516;2023-12-20T08:59:26;15.03;;;4.53;;
29958;SDS011;16815;51.100;6.516;2023-12-20T09:01:52;11.10;;;5.00;;
29958;SDS011;16815;51.100;6.516;2023-12-20T09:04:19;13.63;;;5.20;;
29958;SDS011;16815;51.100;6.516;2023-12-20T09:06:45;13.80;;;5.30;;
29958;SDS011;16815;51.100;6.516;2023-12-20T09:09:11;14.70;;;4.67;;
29958;SDS011;16815;51.100;6.516;2023-12-20T09:11:39;17.33;;;4.97;;
29958;SDS011;16815;51.100;6.516;2023-12-20T09:14:05;14.60;;;4.30;;
29958;SDS011;16815;51.100;6.516;2023-12-20T09:16:31;11.87;;;4.50;;
29958;SDS011;16815;51.100;6.516;2023-12-20T09:18:57;19.80;;;4.60;;
29958;SDS011;16815;51.100;6.516;2023-12-20T09:21:23;10.50;;;4.20;;
29958;SDS011;16815;51.100;6.516;2023-12-20T09:23:49;14.87;;;4.60;;
29958;SDS011;16815;51.100;6.516;2023-12-20T09:26:15;12.77;;;4.43;;
29958;SDS011;16815;51.100;6.516;2023-12-20T09:28:41;13.77;;;4.23;;
29958;SDS011;16815;51.100;6.516;2023-12-20T09:31:07;14.50;;;4.23;;
29958;SDS011;16815;51.100;6.516;2023-12-20T09:33:33;11.10;;;4.30;;
29958;SDS011;16815;51.100;6.516;2023-12-20T09:35:59;9.97;;;3.80;;
29958;SDS011;16815;51.100;6.516;2023-12-20T09:38:25;15.20;;;4.63;;
29958;SDS011;16815;51.100;6.516;2023-12-20T09:40:51;13.83;;;4.30;;
29958;SDS011;16815;51.100;6.516;2023-12-20T09:43:18;13.47;;;3.83;;
29958;SDS011;16815;51.100;6.516;2023-12-20T09:45:48;17.87;;;5.37;;
29958;SDS011;16815;51.100;6.516;2023-12-20T09:48:14;16.60;;;4.97;;
29958;SDS011;16815;51.100;6.516;2023-12-20T09:50:41;16.30;;;4.00;;
29958;SDS011;16815;51.100;6.516;2023-12-20T09:53:08;12.40;;;4.13;;
29958;SDS011;16815;51.100;6.516;2023-12-20T09:55:38;14.10;;;4.17;;
29958;SDS011;16815;51.100;6.516;2023-12-20T09:58:06;10.87;;;4.00;;
29958;SDS011;16815;51.100;6.516;2023-12-20T10:00:33;16.67;;;4.37;;
29958;SDS011;16815;51.100;6.516;2023-12-20T10:03:00;12.87;;;4.90;;
29958;SDS011;16815;51.100;6.516;2023-12-20T10:05:30;13.03;;;4.23;;
29958;SDS011;16815;51.100;6.516;2023-12-20T10:07:57;13.37;;;4.33;;
29958;SDS011;16815;51.100;6.516;2023-12-20T10:10:23;12.23;;;3.60;;
29958;SDS011;16815;51.100;6.516;2023-12-20T10:13:04;15.13;;;4.07;;
29958;SDS011;16815;51.100;6.516;2023-12-20T10:15:32;11.40;;;3.83;;
29958;SDS011;16815;51.100;6.516;2023-12-20T10:17:58;13.07;;;4.00;;
29958;SDS011;16815;51.100;6.516;2023-12-20T10:20:24;11.73;;;4.07;;
29958;SDS011;16815;51.100;6.516;2023-12-20T10:22:50;10.60;;;3.97;;
29958;SDS011;16815;51.100;6.516;2023-12-20T10:25:18;9.10;;;3.40;;
29958;SDS011;16815;51.100;6.516;2023-12-20T10:27:44;14.57;;;4.07;;
29958;SDS011;16815;51.100;6.516;2023-12-20T10:30:10;14.37;;;3.77;;
29958;SDS011;16815;51.100;6.516;2023-12-20T10:32:36;9.43;;;3.40;;
29958;SDS011;16815;51.100;6.516;2023-12-20T10:35:02;10.13;;;3.97;;
29958;SDS011;16815;51.100;6.516;2023-12-20T10:37:29;9.90;;;3.40;;
29958;SDS011;16815;51.100;6.516;2023-12-20T10:39:55;10.50;;;3.20;;
29958;SDS011;16815;51.100;6.516;2023-12-20T10:42:21;12.00;;;3.30;;
29958;SDS011;16815;51.100;6.516;2023-12-20T10:44:48;11.50;;;4.00;;
29958;SDS011;16815;51.100;6.516;2023-12-20T10:47:16;13.37;;;3.80;;
29958;SDS011;16815;51.100;6.516;2023-12-20T10:49:42;10.53;;;3.40;;
29958;SDS011;16815;51.100;6.516;2023-12-20T10:52:09;14.37;;;4.10;;
29958;SDS011;16815;51.100;6.516;2023-12-20T10:54:37;13.87;;;3.97;;
29958;SDS011;16815;51.100;6.516;2023-12-20T10:57:05;14.47;;;4.03;;
29958;SDS011;16815;51.100;6.516;2023-12-20T10:59:32;10.37;;;3.33;;
29958;SDS011;16815;51.100;6.516;2023-12-20T11:01:59;12.43;;;3.70;;
29958;SDS011;16815;51.100;6.516;2023-12-20T11:04:36;13.27;;;3.90;;
29958;SDS011;16815;51.100;6.516;2023-12-20T11:07:07;12.60;;;3.50;;
29958;SDS011;16815;51.100;6.516;2023-12-20T11:09:35;13.33;;;3.97;;
29958;SDS011;16815;51.100;6.516;2023-12-20T11:12:07;15.73;;;4.90;;
29958;SDS011;16815;51.100;6.516;2023-12-20T11:14:39;11.67;;;3.60;;
29958;SDS011;16815;51.100;6.516;2023-12-20T11:17:07;12.33;;;3.23;;
29958;SDS011;16815;51.100;6.516;2023-12-20T11:19:35;11.60;;;3.40;;
29958;SDS011;16815;51.100;6.516;2023-12-20T11:22:03;10.60;;;4.07;;
29958;SDS011;16815;51.100;6.516;2023-12-20T11:24:29;12.50;;;3.70;;
29958;SDS011;16815;51.100;6.516;2023-12-20T11:26:57;14.03;;;4.10;;
29958;SDS011;16815;51.100;6.516;2023-12-20T11:31:54;14.67;;;3.30;;
29958;SDS011;16815;51.100;6.516;2023-12-20T11:34:20;12.33;;;3.30;;
29958;SDS011;16815;51.100;6.516;2023-12-20T11:36:46;11.33;;;3.60;;
29958;SDS011;16815;51.100;6.516;2023-12-20T11:39:12;12.37;;;3.83;;
29958;SDS011;16815;51.100;6.516;2023-12-20T11:41:44;15.33;;;4.00;;
29958;SDS011;16815;51.100;6.516;2023-12-20T11:44:10;11.93;;;3.63;;
29958;SDS011;16815;51.100;6.516;2023-12-20T11:46:36;14.47;;;3.53;;
29958;SDS011;16815;51.100;6.516;2023-12-20T11:49:02;8.03;;;3.47;;
29958;SDS011;16815;51.100;6.516;2023-12-20T11:51:28;15.23;;;3.83;;
29958;SDS011;16815;51.100;6.516;2023-12-20T11:53:54;11.73;;;4.13;;
29958;SDS011;16815;51.100;6.516;2023-12-20T11:56:20;9.27;;;3.43;;
29958;SDS011;16815;51.100;6.516;2023-12-20T11:58:46;10.47;;;3.63;;
29958;SDS011;16815;51.100;6.516;2023-12-20T12:01:13;8.33;;;3.30;;
29958;SDS011;16815;51.100;6.516;2023-12-20T12:03:39;9.83;;;3.83;;
29958;SDS011;16815;51.100;6.516;2023-12-20T12:06:08;8.57;;;3.57;;
29958;SDS011;16815;51.100;6.516;2023-12-20T12:08:35;14.87;;;3.73;;
29958;SDS011;16815;51.100;6.516;2023-12-20T12:11:01;10.53;;;4.07;;
29958;SDS011;16815;51.100;6.516;2023-12-20T12:13:28;12.07;;;3.90;;
29958;SDS011;16815;51.100;6.516;2023-12-20T12:15:54;14.47;;;3.80;;
29958;SDS011;16815;51.100;6.516;2023-12-20T12:18:20;11.30;;;3.90;;
29958;SDS011;16815;51.100;6.516;2023-12-20T12:20:46;13.20;;;3.90;;
29958;SDS011;16815;51.100;6.516;2023-12-20T12:23:12;14.30;;;4.37;;
29958;SDS011;16815;51.100;6.516;2023-12-20T12:25:38;10.97;;;3.53;;
29958;SDS011;16815;51.100;6.516;2023-12-20T12:28:05;17.97;;;4.03;;
29958;SDS011;16815;51.100;6.516;2023-12-20T12:30:30;11.33;;;3.90;;
29958;SDS011;16815;51.100;6.516;2023-12-20T12:32:56;16.07;;;4.50;;
29958;SDS011;16815;51.100;6.516;2023-12-20T12:35:22;11.63;;;4.40;;
29958;SDS011;16815;51.100;6.516;2023-12-20T12:37:48;16.83;;;4.30;;
29958;SDS011;16815;51.100;6.516;2023-12-20T12:40:15;13.97;;;4.23;;
29958;SDS011;16815;51.100;6.516;2023-12-20T12:42:42;16.30;;;3.87;;
29958;SDS011;16815;51.100;6.516;2023-12-20T12:45:08;13.33;;;4.20;;
29958;SDS011;16815;51.100;6.516;2023-12-20T12:47:34;8.70;;;3.47;;
29958;SDS011;16815;51.100;6.516;2023-12-20T12:50:00;10.60;;;3.90;;
29958;SDS011;16815;51.100;6.516;2023-12-20T12:52:26;11.70;;;4.07;;
29958;SDS011;16815;51.100;6.516;2023-12-20T12:54:52;12.17;;;4.70;;
29958;SDS011;16815;51.100;6.516;2023-12-20T12:57:18;20.00;;;4.70;;
29958;SDS011;16815;51.100;6.516;2023-12-20T12:59:44;11.77;;;4.33;;
29958;SDS011;16815;51.100;6.516;2023-12-20T13:02:14;11.07;;;4.10;;
29958;SDS011;16815;51.100;6.516;2023-12-20T13:04:40;12.17;;;4.30;;
29958;SDS011;16815;51.100;6.516;2023-12-20T13:07:07;10.73;;;3.80;;
29958;SDS011;16815;51.100;6.516;2023-12-20T13:09:35;13.03;;;4.40;;
29958;SDS011;16815;51.100;6.516;2023-12-20T13:12:01;11.40;;;3.90;;
29958;SDS011;16815;51.100;6.516;2023-12-20T13:14:29;10.97;;;4.17;;
29958;SDS011;16815;51.100;6.516;2023-12-20T13:16:55;16.07;;;4.57;;
29958;SDS011;16815;51.100;6.516;2023-12-20T13:19:21;10.83;;;3.73;;
29958;SDS011;16815;51.100;6.516;2023-12-20T13:21:46;16.47;;;3.83;;
29958;SDS011;16815;51.100;6.516;2023-12-20T13:24:13;13.53;;;4.80;;
29958;SDS011;16815;51.100;6.516;2023-12-20T13:26:39;9.13;;;3.70;;
29958;SDS011;16815;51.100;6.516;2023-12-20T13:29:05;16.43;;;4.40;;
29958;SDS011;16815;51.100;6.516;2023-12-20T13:31:31;12.43;;;3.47;;
29958;SDS011;16815;51.100;6.516;2023-12-20T13:33:57;10.87;;;4.03;;
29958;SDS011;16815;51.100;6.516;2023-12-20T13:36:23;10.00;;;4.07;;
29958;SDS011;16815;51.100;6.516;2023-12-20T13:38:49;11.77;;;3.47;;
29958;SDS011;16815;51.100;6.516;2023-12-20T13:41:15;8.47;;;3.30;;
29958;SDS011;16815;51.100;6.516;2023-12-20T13:43:41;9.33;;;3.30;;
29958;SDS011;16815;51.100;6.516;2023-12-20T13:46:07;11.17;;;3.80;;
29958;SDS011;16815;51.100;6.516;2023-12-20T13:48:34;8.37;;;3.53;;
29958;SDS011;16815;51.100;6.516;2023-12-20T13:51:00;10.17;;;3.87;;
29958;SDS011;16815;51.100;6.516;2023-12-20T13:53:27;9.77;;;4.10;;
29958;SDS011;16815;51.100;6.516;2023-12-20T13:55:53;9.50;;;3.60;;
29958;SDS011;16815;51.100;6.516;2023-12-20T13:58:19;10.60;;;3.50;;
29958;SDS011;16815;51.100;6.516;2023-12-20T14:00:45;11.43;;;3.70;;
29958;SDS011;16815;51.100;6.516;2023-12-20T14:03:11;11.63;;;3.57;;
29958;SDS011;16815;51.100;6.516;2023-12-20T14:05:37;12.37;;;3.60;;
29958;SDS011;16815;51.100;6.516;2023-12-20T14:08:03;9.27;;;3.87;;
29958;SDS011;16815;51.100;6.516;2023-12-20T14:10:29;13.73;;;3.50;;
29958;SDS011;16815;51.100;6.516;2023-12-20T14:12:55;11.37;;;4.03;;
29958;SDS011;16815;51.100;6.516;2023-12-20T14:15:21;10.97;;;4.43;;
29958;SDS011;16815;51.100;6.516;2023-12-20T14:17:50;12.00;;;3.70;;
29958;SDS011;16815;51.100;6.516;2023-12-20T14:20:16;12.10;;;4.10;;
29958;SDS011;16815;51.100;6.516;2023-12-20T14:22:42;10.03;;;4.13;;
29958;SDS011;16815;51.100;6.516;2023-12-20T14:25:12;9.07;;;3.87;;
29958;SDS011;16815;51.100;6.516;2023-12-20T14:27:38;9.27;;;4.00;;
29958;SDS011;16815;51.100;6.516;2023-12-20T14:30:05;10.07;;;4.50;;
29958;SDS011;16815;51.100;6.516;2023-12-20T14:32:31;9.73;;;3.73;;